PWSweather.com
Personal Weather Stations
Station Observations
719732
Ponferrada, PonferradaES 24411

PonferradaPonferradaES 24411

Lat: 42.5728, Lon: -6.6425

Elevation: 1676

Station Type: PCE-FWS 20 con garita Ambient Weather SRS100LX

www.meteo.spyfly.es

High Low Average
Temperature 88.5°F31.4°C 63.0°F17.2°C 75.0°F23.9°C
Dew Point 59.6°F15.3°C 47.8°F8.8°C 53.6°F12.0°C
Winds 13.6 mph 21.9 kmh Calm Calm 5.0 mph E8.0 kmh E
Wind Gusts 18.3 mph29.5 kmh 3.8 mph6.1 kmh 10.0 mph16.1 kmh
Humidity 72% 26% 49%
Pressure 30.28 in1025.4 mb 30.09 in1019.0 mb -
Precipitation 0.00 in0.0 mm - -
Hour Temp Dew Point Humidity Winds Wind Gusts Pressure Precip Precip Rate Daily Precip Total
12:00 AM 69.8°F21.0°C 50.9°F10.5°C 51% 3.8 mph NE6.1 kmh NE 7.6 mph12.2 kmh 30.28 in1025.4 mb 0.00 in0.0 mm 0.00 in0.0 mm 0.00 in0.0 mm
12:05 AM 70.0°F21.1°C 51.0°F10.6°C 51% 5.4 mph NE8.7 kmh NE 8.3 mph13.4 kmh 30.27 in1025.1 mb 0.00 in0.0 mm 0.00 in0.0 mm 0.00 in0.0 mm
12:10 AM 70.0°F21.1°C 51.0°F10.6°C 51% 6.9 mph NE11.1 kmh NE 9.8 mph15.8 kmh 30.27 in1025.1 mb 0.00 in0.0 mm 0.00 in0.0 mm 0.00 in0.0 mm
12:15 AM 70.0°F21.1°C 51.0°F10.6°C 51% 5.4 mph NE8.7 kmh NE 9.8 mph15.8 kmh 30.28 in1025.4 mb 0.00 in0.0 mm 0.00 in0.0 mm 0.00 in0.0 mm
12:20 AM 70.0°F21.1°C 51.0°F10.6°C 51% 3.1 mph NE5.0 kmh NE 9.2 mph14.8 kmh 30.28 in1025.4 mb 0.00 in0.0 mm 0.00 in0.0 mm 0.00 in0.0 mm
12:25 AM 69.8°F21.0°C 51.4°F10.8°C 52% 3.8 mph ENE6.1 kmh ENE 7.6 mph12.2 kmh 30.28 in1025.4 mb 0.00 in0.0 mm 0.00 in0.0 mm 0.00 in0.0 mm
12:30 AM 69.8°F21.0°C 51.4°F10.8°C 52% 3.1 mph NE5.0 kmh NE 9.2 mph14.8 kmh 30.28 in1025.4 mb 0.00 in0.0 mm 0.00 in0.0 mm 0.00 in0.0 mm
12:35 AM 69.6°F20.9°C 51.8°F11.0°C 53% 3.1 mph NNE5.0 kmh NNE 9.2 mph14.8 kmh 30.28 in1025.4 mb 0.00 in0.0 mm 0.00 in0.0 mm 0.00 in0.0 mm
12:40 AM 69.3°F20.7°C 51.4°F10.8°C 53% 2.2 mph NE3.5 kmh NE 7.6 mph12.2 kmh 30.28 in1025.4 mb 0.00 in0.0 mm 0.00 in0.0 mm 0.00 in0.0 mm
12:45 AM 69.1°F20.6°C 51.3°F10.7°C 53% 3.8 mph NE6.1 kmh NE 7.6 mph12.2 kmh 30.28 in1025.4 mb 0.00 in0.0 mm 0.00 in0.0 mm 0.00 in0.0 mm
12:50 AM 68.9°F20.5°C 51.1°F10.6°C 53% 0.7 mph ENE1.1 kmh ENE 7.6 mph12.2 kmh 30.27 in1025.1 mb 0.00 in0.0 mm 0.00 in0.0 mm 0.00 in0.0 mm
12:55 AM 68.9°F20.5°C 51.1°F10.6°C 53% 3.1 mph E5.0 kmh E 8.3 mph13.4 kmh 30.27 in1025.1 mb 0.00 in0.0 mm 0.00 in0.0 mm 0.00 in0.0 mm
01:00 AM 68.9°F20.5°C 51.1°F10.6°C 53% 4.5 mph ENE7.2 kmh ENE 8.3 mph13.4 kmh 30.27 in1025.1 mb 0.00 in0.0 mm 0.00 in0.0 mm 0.00 in0.0 mm
01:05 AM 68.9°F20.5°C 51.1°F10.6°C 53% 4.5 mph E7.2 kmh E 8.3 mph13.4 kmh 30.27 in1025.1 mb 0.00 in0.0 mm 0.00 in0.0 mm 0.00 in0.0 mm
01:10 AM 68.9°F20.5°C 51.1°F10.6°C 53% 3.1 mph SE5.0 kmh SE 7.6 mph12.2 kmh 30.27 in1025.1 mb 0.00 in0.0 mm 0.00 in0.0 mm 0.00 in0.0 mm
01:15 AM 68.9°F20.5°C 51.1°F10.6°C 53% 3.8 mph E6.1 kmh E 7.6 mph12.2 kmh 30.27 in1025.1 mb 0.00 in0.0 mm 0.00 in0.0 mm 0.00 in0.0 mm
01:20 AM 69.1°F20.6°C 51.3°F10.7°C 53% 5.4 mph E8.7 kmh E 9.2 mph14.8 kmh 30.27 in1025.1 mb 0.00 in0.0 mm 0.00 in0.0 mm 0.00 in0.0 mm
01:25 AM 69.1°F20.6°C 51.3°F10.7°C 53% 3.8 mph E6.1 kmh E 9.2 mph14.8 kmh 30.27 in1025.1 mb 0.00 in0.0 mm 0.00 in0.0 mm 0.00 in0.0 mm
01:30 AM 69.1°F20.6°C 51.3°F10.7°C 53% 3.1 mph E5.0 kmh E 9.2 mph14.8 kmh 30.27 in1025.1 mb 0.00 in0.0 mm 0.00 in0.0 mm 0.00 in0.0 mm
01:35 AM 69.3°F20.7°C 51.4°F10.8°C 53% 2.2 mph ENE3.5 kmh ENE 9.8 mph15.8 kmh 30.27 in1025.1 mb 0.00 in0.0 mm 0.00 in0.0 mm 0.00 in0.0 mm
01:40 AM 69.3°F20.7°C 51.4°F10.8°C 53% 3.1 mph ENE5.0 kmh ENE 9.8 mph15.8 kmh 30.27 in1025.1 mb 0.00 in0.0 mm 0.00 in0.0 mm 0.00 in0.0 mm
01:45 AM 69.3°F20.7°C 51.4°F10.8°C 53% 2.2 mph ENE3.5 kmh ENE 6.0 mph9.7 kmh 30.27 in1025.1 mb 0.00 in0.0 mm 0.00 in0.0 mm 0.00 in0.0 mm
01:50 AM 69.3°F20.7°C 51.4°F10.8°C 53% 3.1 mph ENE5.0 kmh ENE 6.0 mph9.7 kmh 30.27 in1025.1 mb 0.00 in0.0 mm 0.00 in0.0 mm 0.00 in0.0 mm
01:55 AM 69.3°F20.7°C 51.4°F10.8°C 53% 5.4 mph NE8.7 kmh NE 9.2 mph14.8 kmh 30.27 in1025.1 mb 0.00 in0.0 mm 0.00 in0.0 mm 0.00 in0.0 mm
02:00 AM 69.4°F20.8°C 52.1°F11.2°C 54% 3.1 mph NE5.0 kmh NE 9.2 mph14.8 kmh 30.27 in1025.1 mb 0.00 in0.0 mm 0.00 in0.0 mm 0.00 in0.0 mm
02:05 AM 69.4°F20.8°C 52.1°F11.2°C 54% 5.4 mph ENE8.7 kmh ENE 8.3 mph13.4 kmh 30.27 in1025.1 mb 0.00 in0.0 mm 0.00 in0.0 mm 0.00 in0.0 mm
02:10 AM 69.6°F20.9°C 52.3°F11.3°C 54% 6.0 mph ENE9.7 kmh ENE 10.7 mph17.2 kmh 30.27 in1025.1 mb 0.00 in0.0 mm 0.00 in0.0 mm 0.00 in0.0 mm
02:15 AM 69.6°F20.9°C 52.3°F11.3°C 54% 5.4 mph E8.7 kmh E 10.7 mph17.2 kmh 30.27 in1025.1 mb 0.00 in0.0 mm 0.00 in0.0 mm 0.00 in0.0 mm
02:20 AM 69.8°F21.0°C 51.9°F11.1°C 53% 6.0 mph E9.7 kmh E 13.0 mph20.9 kmh 30.27 in1025.1 mb 0.00 in0.0 mm 0.00 in0.0 mm 0.00 in0.0 mm
02:25 AM 69.8°F21.0°C 51.9°F11.1°C 53% 6.0 mph E9.7 kmh E 13.0 mph20.9 kmh 30.27 in1025.1 mb 0.00 in0.0 mm 0.00 in0.0 mm 0.00 in0.0 mm
02:30 AM 69.8°F21.0°C 51.9°F11.1°C 53% 3.8 mph NE6.1 kmh NE 10.7 mph17.2 kmh 30.26 in1024.7 mb 0.00 in0.0 mm 0.00 in0.0 mm 0.00 in0.0 mm
02:35 AM 69.8°F21.0°C 51.9°F11.1°C 53% 5.4 mph NE8.7 kmh NE 10.7 mph17.2 kmh 30.26 in1024.7 mb 0.00 in0.0 mm 0.00 in0.0 mm 0.00 in0.0 mm
02:40 AM 69.8°F21.0°C 51.9°F11.1°C 53% 5.4 mph ENE8.7 kmh ENE 10.7 mph17.2 kmh 30.26 in1024.7 mb 0.00 in0.0 mm 0.00 in0.0 mm 0.00 in0.0 mm
02:45 AM 69.8°F21.0°C 51.9°F11.1°C 53% 6.0 mph NE9.7 kmh NE 11.4 mph18.3 kmh 30.26 in1024.7 mb 0.00 in0.0 mm 0.00 in0.0 mm 0.00 in0.0 mm
02:50 AM 69.8°F21.0°C 52.4°F11.3°C 54% 6.9 mph NE11.1 kmh NE 12.1 mph19.5 kmh 30.26 in1024.7 mb 0.00 in0.0 mm 0.00 in0.0 mm 0.00 in0.0 mm
02:55 AM 69.8°F21.0°C 52.4°F11.3°C 54% 5.4 mph NE8.7 kmh NE 12.1 mph19.5 kmh 30.26 in1024.7 mb 0.00 in0.0 mm 0.00 in0.0 mm 0.00 in0.0 mm
03:00 AM 69.8°F21.0°C 52.4°F11.3°C 54% 3.1 mph NE5.0 kmh NE 11.4 mph18.3 kmh 30.25 in1024.4 mb 0.00 in0.0 mm 0.00 in0.0 mm 0.00 in0.0 mm
03:05 AM 69.6°F20.9°C 52.8°F11.6°C 55% 5.4 mph NE8.7 kmh NE 8.3 mph13.4 kmh 30.25 in1024.4 mb 0.00 in0.0 mm 0.00 in0.0 mm 0.00 in0.0 mm
03:10 AM 69.6°F20.9°C 53.3°F11.8°C 56% 4.5 mph NE7.2 kmh NE 8.3 mph13.4 kmh 30.25 in1024.4 mb 0.00 in0.0 mm 0.00 in0.0 mm 0.00 in0.0 mm
03:15 AM 69.4°F20.8°C 52.6°F11.4°C 55% 3.8 mph NE6.1 kmh NE 7.6 mph12.2 kmh 30.25 in1024.4 mb 0.00 in0.0 mm 0.00 in0.0 mm 0.00 in0.0 mm
03:20 AM 69.3°F20.7°C 52.9°F11.6°C 56% 4.5 mph NE7.2 kmh NE 8.3 mph13.4 kmh 30.25 in1024.4 mb 0.00 in0.0 mm 0.00 in0.0 mm 0.00 in0.0 mm
03:25 AM 69.3°F20.7°C 52.9°F11.6°C 56% 3.8 mph NE6.1 kmh NE 8.3 mph13.4 kmh 30.25 in1024.4 mb 0.00 in0.0 mm 0.00 in0.0 mm 0.00 in0.0 mm
03:30 AM 69.1°F20.6°C 53.2°F11.8°C 57% 4.5 mph ENE7.2 kmh ENE 7.6 mph12.2 kmh 30.25 in1024.4 mb 0.00 in0.0 mm 0.00 in0.0 mm 0.00 in0.0 mm
03:35 AM 68.9°F20.5°C 53.5°F11.9°C 58% 3.8 mph ENE6.1 kmh ENE 9.8 mph15.8 kmh 30.25 in1024.4 mb 0.00 in0.0 mm 0.00 in0.0 mm 0.00 in0.0 mm
03:40 AM 68.7°F20.4°C 53.4°F11.9°C 58% 2.2 mph NE3.5 kmh NE 9.8 mph15.8 kmh 30.25 in1024.4 mb 0.00 in0.0 mm 0.00 in0.0 mm 0.00 in0.0 mm
03:45 AM 68.4°F20.2°C 53.5°F11.9°C 59% 5.4 mph NE8.7 kmh NE 9.8 mph15.8 kmh 30.25 in1024.4 mb 0.00 in0.0 mm 0.00 in0.0 mm 0.00 in0.0 mm
03:50 AM 68.2°F20.1°C 53.8°F12.1°C 60% 3.8 mph NE6.1 kmh NE 9.8 mph15.8 kmh 30.25 in1024.4 mb 0.00 in0.0 mm 0.00 in0.0 mm 0.00 in0.0 mm
03:55 AM 68.0°F20.0°C 53.6°F12.0°C 60% 3.8 mph NE6.1 kmh NE 6.9 mph11.1 kmh 30.25 in1024.4 mb 0.00 in0.0 mm 0.00 in0.0 mm 0.00 in0.0 mm
04:00 AM 67.8°F19.9°C 54.3°F12.4°C 62% 3.8 mph NNE6.1 kmh NNE 6.9 mph11.1 kmh 30.25 in1024.4 mb 0.00 in0.0 mm 0.00 in0.0 mm 0.00 in0.0 mm
04:05 AM 67.6°F19.8°C 54.6°F12.6°C 63% 3.8 mph NNE6.1 kmh NNE 6.9 mph11.1 kmh 30.25 in1024.4 mb 0.00 in0.0 mm 0.00 in0.0 mm 0.00 in0.0 mm
04:10 AM 67.3°F19.6°C 54.3°F12.4°C 63% 6.0 mph NE9.7 kmh NE 7.6 mph12.2 kmh 30.25 in1024.4 mb 0.00 in0.0 mm 0.00 in0.0 mm 0.00 in0.0 mm
04:15 AM 67.1°F19.5°C 54.5°F12.5°C 64% 1.6 mph NNE2.6 kmh NNE 7.6 mph12.2 kmh 30.25 in1024.4 mb 0.00 in0.0 mm 0.00 in0.0 mm 0.00 in0.0 mm
04:20 AM 66.7°F19.3°C 54.2°F12.3°C 64% 5.4 mph NNE8.7 kmh NNE 6.0 mph9.7 kmh 30.25 in1024.4 mb 0.00 in0.0 mm 0.00 in0.0 mm 0.00 in0.0 mm
04:25 AM 66.2°F19.0°C 54.1°F12.3°C 65% 5.4 mph NE8.7 kmh NE 6.9 mph11.1 kmh 30.25 in1024.4 mb 0.00 in0.0 mm 0.00 in0.0 mm 0.00 in0.0 mm
04:30 AM 66.0°F18.9°C 54.4°F12.4°C 66% 2.2 mph NNE3.5 kmh NNE 7.6 mph12.2 kmh 30.24 in1024.0 mb 0.00 in0.0 mm 0.00 in0.0 mm 0.00 in0.0 mm
04:35 AM 65.8°F18.8°C 54.6°F12.6°C 67% 3.8 mph NE6.1 kmh NE 7.6 mph12.2 kmh 30.24 in1024.0 mb 0.00 in0.0 mm 0.00 in0.0 mm 0.00 in0.0 mm
04:40 AM 65.8°F18.8°C 54.6°F12.6°C 67% 4.5 mph NE7.2 kmh NE 6.9 mph11.1 kmh 30.25 in1024.4 mb 0.00 in0.0 mm 0.00 in0.0 mm 0.00 in0.0 mm
04:45 AM 65.8°F18.8°C 54.6°F12.6°C 67% 6.0 mph NE9.7 kmh NE 7.6 mph12.2 kmh 30.25 in1024.4 mb 0.00 in0.0 mm 0.00 in0.0 mm 0.00 in0.0 mm
04:50 AM 66.0°F18.9°C 54.8°F12.7°C 67% 4.5 mph NE7.2 kmh NE 9.8 mph15.8 kmh 30.25 in1024.4 mb 0.00 in0.0 mm 0.00 in0.0 mm 0.00 in0.0 mm
04:55 AM 66.0°F18.9°C 54.8°F12.7°C 67% 6.9 mph NE11.1 kmh NE 10.7 mph17.2 kmh 30.24 in1024.0 mb 0.00 in0.0 mm 0.00 in0.0 mm 0.00 in0.0 mm
05:00 AM 65.8°F18.8°C 55.0°F12.8°C 68% 5.4 mph NE8.7 kmh NE 10.7 mph17.2 kmh 30.25 in1024.4 mb 0.00 in0.0 mm 0.00 in0.0 mm 0.00 in0.0 mm
05:05 AM 65.8°F18.8°C 55.0°F12.8°C 68% 5.4 mph NE8.7 kmh NE 10.7 mph17.2 kmh 30.25 in1024.4 mb 0.00 in0.0 mm 0.00 in0.0 mm 0.00 in0.0 mm
05:10 AM 65.5°F18.6°C 54.7°F12.6°C 68% 3.8 mph NE6.1 kmh NE 6.9 mph11.1 kmh 30.25 in1024.4 mb 0.00 in0.0 mm 0.00 in0.0 mm 0.00 in0.0 mm
05:15 AM 65.1°F18.4°C 54.3°F12.4°C 68% 3.8 mph NNE6.1 kmh NNE 6.9 mph11.1 kmh 30.25 in1024.4 mb 0.00 in0.0 mm 0.00 in0.0 mm 0.00 in0.0 mm
05:20 AM 64.6°F18.1°C 53.8°F12.1°C 68% 4.5 mph N7.2 kmh N 6.9 mph11.1 kmh 30.25 in1024.4 mb 0.00 in0.0 mm 0.00 in0.0 mm 0.00 in0.0 mm
05:25 AM 64.4°F18.0°C 54.0°F12.2°C 69% 4.5 mph NNE7.2 kmh NNE 8.3 mph13.4 kmh 30.25 in1024.4 mb 0.00 in0.0 mm 0.00 in0.0 mm 0.00 in0.0 mm
05:30 AM 64.4°F18.0°C 54.0°F12.2°C 69% 6.9 mph NNE11.1 kmh NNE 9.2 mph14.8 kmh 30.25 in1024.4 mb 0.00 in0.0 mm 0.00 in0.0 mm 0.00 in0.0 mm
05:35 AM 64.6°F18.1°C 53.8°F12.1°C 68% 5.4 mph NNE8.7 kmh NNE 9.2 mph14.8 kmh 30.24 in1024.0 mb 0.00 in0.0 mm 0.00 in0.0 mm 0.00 in0.0 mm
05:40 AM 64.6°F18.1°C 53.8°F12.1°C 68% 6.0 mph NE9.7 kmh NE 9.8 mph15.8 kmh 30.25 in1024.4 mb 0.00 in0.0 mm 0.00 in0.0 mm 0.00 in0.0 mm
05:45 AM 64.8°F18.2°C 54.0°F12.2°C 68% 3.8 mph NNE6.1 kmh NNE 9.8 mph15.8 kmh 30.25 in1024.4 mb 0.00 in0.0 mm 0.00 in0.0 mm 0.00 in0.0 mm
05:50 AM 64.8°F18.2°C 54.0°F12.2°C 68% 3.8 mph NNE6.1 kmh NNE 8.3 mph13.4 kmh 30.25 in1024.4 mb 0.00 in0.0 mm 0.00 in0.0 mm 0.00 in0.0 mm
05:55 AM 64.8°F18.2°C 54.0°F12.2°C 68% 3.1 mph N5.0 kmh N 6.0 mph9.7 kmh 30.25 in1024.4 mb 0.00 in0.0 mm 0.00 in0.0 mm 0.00 in0.0 mm
06:00 AM 64.6°F18.1°C 53.8°F12.1°C 68% 3.8 mph N6.1 kmh N 6.0 mph9.7 kmh 30.25 in1024.4 mb 0.00 in0.0 mm 0.00 in0.0 mm 0.00 in0.0 mm
06:05 AM 64.8°F18.2°C 54.0°F12.2°C 68% 1.6 mph NNE2.6 kmh NNE 6.0 mph9.7 kmh 30.25 in1024.4 mb 0.00 in0.0 mm 0.00 in0.0 mm 0.00 in0.0 mm
06:10 AM 64.8°F18.2°C 54.0°F12.2°C 68% 1.6 mph NE2.6 kmh NE 6.0 mph9.7 kmh 30.25 in1024.4 mb 0.00 in0.0 mm 0.00 in0.0 mm 0.00 in0.0 mm
06:15 AM 64.8°F18.2°C 54.0°F12.2°C 68% 2.2 mph NE3.5 kmh NE 4.5 mph7.2 kmh 30.25 in1024.4 mb 0.00 in0.0 mm 0.00 in0.0 mm 0.00 in0.0 mm
06:20 AM 64.6°F18.1°C 53.8°F12.1°C 68% 3.1 mph NNE5.0 kmh NNE 4.5 mph7.2 kmh 30.25 in1024.4 mb 0.00 in0.0 mm 0.00 in0.0 mm 0.00 in0.0 mm
06:25 AM 64.2°F17.9°C 53.9°F12.2°C 69% 3.8 mph NNE6.1 kmh NNE 5.4 mph8.7 kmh 30.25 in1024.4 mb 0.00 in0.0 mm 0.00 in0.0 mm 0.00 in0.0 mm
06:30 AM 63.9°F17.7°C 53.9°F12.2°C 70% 3.1 mph N5.0 kmh N 5.4 mph8.7 kmh 30.25 in1024.4 mb 0.00 in0.0 mm 0.00 in0.0 mm 0.00 in0.0 mm
06:35 AM 63.9°F17.7°C 53.9°F12.2°C 70% 3.8 mph NNE6.1 kmh NNE 6.0 mph9.7 kmh 30.25 in1024.4 mb 0.00 in0.0 mm 0.00 in0.0 mm 0.00 in0.0 mm
06:40 AM 63.9°F17.7°C 53.9°F12.2°C 70% 3.1 mph NE5.0 kmh NE 6.9 mph11.1 kmh 30.25 in1024.4 mb 0.00 in0.0 mm 0.00 in0.0 mm 0.00 in0.0 mm
06:45 AM 63.9°F17.7°C 53.9°F12.2°C 70% 3.8 mph NE6.1 kmh NE 6.9 mph11.1 kmh 30.25 in1024.4 mb 0.00 in0.0 mm 0.00 in0.0 mm 0.00 in0.0 mm
06:50 AM 63.7°F17.6°C 54.1°F12.3°C 71% 3.8 mph NE6.1 kmh NE 6.9 mph11.1 kmh 30.25 in1024.4 mb 0.00 in0.0 mm 0.00 in0.0 mm 0.00 in0.0 mm
06:55 AM 63.7°F17.6°C 54.1°F12.3°C 71% 4.5 mph NE7.2 kmh NE 6.9 mph11.1 kmh 30.25 in1024.4 mb 0.00 in0.0 mm 0.00 in0.0 mm 0.00 in0.0 mm
07:00 AM 63.7°F17.6°C 54.1°F12.3°C 71% 4.5 mph NE7.2 kmh NE 6.9 mph11.1 kmh 30.25 in1024.4 mb 0.00 in0.0 mm 0.00 in0.0 mm 0.00 in0.0 mm
07:05 AM 63.7°F17.6°C 54.1°F12.3°C 71% 4.5 mph NE7.2 kmh NE 6.9 mph11.1 kmh 30.25 in1024.4 mb 0.00 in0.0 mm 0.00 in0.0 mm 0.00 in0.0 mm
07:10 AM 63.9°F17.7°C 53.9°F12.2°C 70% 3.8 mph NE6.1 kmh NE 6.0 mph9.7 kmh 30.25 in1024.4 mb 0.00 in0.0 mm 0.00 in0.0 mm 0.00 in0.0 mm
07:15 AM 63.9°F17.7°C 53.9°F12.2°C 70% 1.6 mph NE2.6 kmh NE 6.0 mph9.7 kmh 30.25 in1024.4 mb 0.00 in0.0 mm 0.00 in0.0 mm 0.00 in0.0 mm
07:20 AM 63.5°F17.5°C 53.6°F12.0°C 70% 1.6 mph NNE2.6 kmh NNE 5.4 mph8.7 kmh 30.25 in1024.4 mb 0.00 in0.0 mm 0.00 in0.0 mm 0.00 in0.0 mm
07:25 AM 63.3°F17.4°C 53.8°F12.1°C 71% 3.8 mph N6.1 kmh N 4.5 mph7.2 kmh 30.25 in1024.4 mb 0.00 in0.0 mm 0.00 in0.0 mm 0.00 in0.0 mm
07:30 AM 63.1°F17.3°C 53.2°F11.8°C 70% 1.6 mph NNE2.6 kmh NNE 4.5 mph7.2 kmh 30.25 in1024.4 mb 0.00 in0.0 mm 0.00 in0.0 mm 0.00 in0.0 mm
07:35 AM 63.1°F17.3°C 53.2°F11.8°C 70% 1.6 mph NE2.6 kmh NE 4.5 mph7.2 kmh 30.25 in1024.4 mb 0.00 in0.0 mm 0.00 in0.0 mm 0.00 in0.0 mm
07:40 AM 63.1°F17.3°C 53.2°F11.8°C 70% 3.1 mph NE5.0 kmh NE 4.5 mph7.2 kmh 30.25 in1024.4 mb 0.00 in0.0 mm 0.00 in0.0 mm 0.00 in0.0 mm
07:45 AM 63.1°F17.3°C 53.6°F12.0°C 71% Calm Calm 5.4 mph8.7 kmh 30.25 in1024.4 mb 0.00 in0.0 mm 0.00 in0.0 mm 0.00 in0.0 mm
07:50 AM 63.0°F17.2°C 53.4°F11.9°C 71% 1.6 mph NNE2.6 kmh NNE 5.4 mph8.7 kmh 30.25 in1024.4 mb 0.00 in0.0 mm 0.00 in0.0 mm 0.00 in0.0 mm
07:55 AM 63.1°F17.3°C 53.6°F12.0°C 71% 0.7 mph NNE1.1 kmh NNE 7.6 mph12.2 kmh 30.25 in1024.4 mb 0.00 in0.0 mm 0.00 in0.0 mm 0.00 in0.0 mm
08:00 AM 63.1°F17.3°C 53.6°F12.0°C 71% 0.7 mph N1.1 kmh N 7.6 mph12.2 kmh 30.26 in1024.7 mb 0.00 in0.0 mm 0.00 in0.0 mm 0.00 in0.0 mm
08:05 AM 63.3°F17.4°C 53.8°F12.1°C 71% 2.2 mph NNE3.5 kmh NNE 3.8 mph6.1 kmh 30.25 in1024.4 mb 0.00 in0.0 mm 0.00 in0.0 mm 0.00 in0.0 mm
08:10 AM 63.3°F17.4°C 53.8°F12.1°C 71% 1.6 mph NE2.6 kmh NE 4.5 mph7.2 kmh 30.25 in1024.4 mb 0.00 in0.0 mm 0.00 in0.0 mm 0.00 in0.0 mm
08:15 AM 63.5°F17.5°C 53.9°F12.2°C 71% 0.7 mph E1.1 kmh E 4.5 mph7.2 kmh 30.26 in1024.7 mb 0.00 in0.0 mm 0.00 in0.0 mm 0.00 in0.0 mm
08:20 AM 63.7°F17.6°C 54.1°F12.3°C 71% 2.2 mph NE3.5 kmh NE 4.5 mph7.2 kmh 30.26 in1024.7 mb 0.00 in0.0 mm 0.00 in0.0 mm 0.00 in0.0 mm
08:25 AM 63.9°F17.7°C 54.7°F12.6°C 72% 0.7 mph N1.1 kmh N 4.5 mph7.2 kmh 30.26 in1024.7 mb 0.00 in0.0 mm 0.00 in0.0 mm 0.00 in0.0 mm
08:30 AM 64.0°F17.8°C 54.5°F12.5°C 71% Calm Calm 3.8 mph6.1 kmh 30.26 in1024.7 mb 0.00 in0.0 mm 0.00 in0.0 mm 0.00 in0.0 mm
08:35 AM 64.2°F17.9°C 54.6°F12.6°C 71% Calm Calm 4.5 mph7.2 kmh 30.26 in1024.7 mb 0.00 in0.0 mm 0.00 in0.0 mm 0.00 in0.0 mm
08:40 AM 64.8°F18.2°C 54.8°F12.7°C 70% 3.1 mph NE5.0 kmh NE 6.9 mph11.1 kmh 30.26 in1024.7 mb 0.00 in0.0 mm 0.00 in0.0 mm 0.00 in0.0 mm
08:45 AM 65.3°F18.5°C 54.9°F12.7°C 69% 4.5 mph NE7.2 kmh NE 7.6 mph12.2 kmh 30.26 in1024.7 mb 0.00 in0.0 mm 0.00 in0.0 mm 0.00 in0.0 mm
08:50 AM 66.0°F18.9°C 55.2°F12.9°C 68% 4.5 mph NE7.2 kmh NE 9.8 mph15.8 kmh 30.26 in1024.7 mb 0.00 in0.0 mm 0.00 in0.0 mm 0.00 in0.0 mm
08:55 AM 66.6°F19.2°C 54.9°F12.7°C 66% 6.9 mph NE11.1 kmh NE 9.8 mph15.8 kmh 30.26 in1024.7 mb 0.00 in0.0 mm 0.00 in0.0 mm 0.00 in0.0 mm
09:00 AM 66.9°F19.4°C 55.2°F12.9°C 66% 6.9 mph NE11.1 kmh NE 12.1 mph19.5 kmh 30.27 in1025.1 mb 0.00 in0.0 mm 0.00 in0.0 mm 0.00 in0.0 mm
09:05 AM 67.3°F19.6°C 55.6°F13.1°C 66% 6.0 mph NNE9.7 kmh NNE 12.1 mph19.5 kmh 30.26 in1024.7 mb 0.00 in0.0 mm 0.00 in0.0 mm 0.00 in0.0 mm
09:10 AM 67.8°F19.9°C 55.6°F13.1°C 65% 7.6 mph NE12.2 kmh NE 11.4 mph18.3 kmh 30.26 in1024.7 mb 0.00 in0.0 mm 0.00 in0.0 mm 0.00 in0.0 mm
09:15 AM 68.2°F20.1°C 55.1°F12.8°C 63% 7.6 mph NE12.2 kmh NE 12.1 mph19.5 kmh 30.27 in1025.1 mb 0.00 in0.0 mm 0.00 in0.0 mm 0.00 in0.0 mm
09:20 AM 68.7°F20.4°C 55.6°F13.1°C 63% 5.4 mph NE8.7 kmh NE 12.1 mph19.5 kmh 30.26 in1024.7 mb 0.00 in0.0 mm 0.00 in0.0 mm 0.00 in0.0 mm
09:25 AM 68.9°F20.5°C 55.8°F13.2°C 63% 8.3 mph ENE13.4 kmh ENE 10.7 mph17.2 kmh 30.26 in1024.7 mb 0.00 in0.0 mm 0.00 in0.0 mm 0.00 in0.0 mm
09:30 AM 69.1°F20.6°C 56.0°F13.3°C 63% 3.1 mph NE5.0 kmh NE 10.7 mph17.2 kmh 30.26 in1024.7 mb 0.00 in0.0 mm 0.00 in0.0 mm 0.00 in0.0 mm
09:35 AM 69.4°F20.8°C 56.3°F13.5°C 63% 3.8 mph NE6.1 kmh NE 10.7 mph17.2 kmh 30.26 in1024.7 mb 0.00 in0.0 mm 0.00 in0.0 mm 0.00 in0.0 mm
09:40 AM 69.8°F21.0°C 56.2°F13.4°C 62% 1.6 mph NE2.6 kmh NE 7.6 mph12.2 kmh 30.26 in1024.7 mb 0.00 in0.0 mm 0.00 in0.0 mm 0.00 in0.0 mm
09:45 AM 70.0°F21.1°C 56.4°F13.6°C 62% 4.5 mph NE7.2 kmh NE 7.6 mph12.2 kmh 30.26 in1024.7 mb 0.00 in0.0 mm 0.00 in0.0 mm 0.00 in0.0 mm
09:50 AM 70.2°F21.2°C 56.6°F13.7°C 62% 3.8 mph NE6.1 kmh NE 7.6 mph12.2 kmh 30.26 in1024.7 mb 0.00 in0.0 mm 0.00 in0.0 mm 0.00 in0.0 mm
09:55 AM 70.5°F21.4°C 56.9°F13.8°C 62% 3.1 mph NE5.0 kmh NE 8.3 mph13.4 kmh 30.26 in1024.7 mb 0.00 in0.0 mm 0.00 in0.0 mm 0.00 in0.0 mm
10:00 AM 70.7°F21.5°C 57.1°F13.9°C 62% 4.5 mph NE7.2 kmh NE 8.3 mph13.4 kmh 30.26 in1024.7 mb 0.00 in0.0 mm 0.00 in0.0 mm 0.00 in0.0 mm
10:05 AM 70.9°F21.6°C 57.2°F14.0°C 62% 3.8 mph NE6.1 kmh NE 6.9 mph11.1 kmh 30.26 in1024.7 mb 0.00 in0.0 mm 0.00 in0.0 mm 0.00 in0.0 mm
10:10 AM 70.9°F21.6°C 57.2°F14.0°C 62% 3.1 mph NE5.0 kmh NE 6.9 mph11.1 kmh 30.26 in1024.7 mb 0.00 in0.0 mm 0.00 in0.0 mm 0.00 in0.0 mm
10:15 AM 70.9°F21.6°C 57.2°F14.0°C 62% 3.8 mph NNE6.1 kmh NNE 6.9 mph11.1 kmh 30.26 in1024.7 mb 0.00 in0.0 mm 0.00 in0.0 mm 0.00 in0.0 mm
10:20 AM 71.4°F21.9°C 58.2°F14.6°C 63% 3.8 mph NNE6.1 kmh NNE 6.0 mph9.7 kmh 30.26 in1024.7 mb 0.00 in0.0 mm 0.00 in0.0 mm 0.00 in0.0 mm
10:25 AM 72.1°F22.3°C 58.0°F14.4°C 61% 3.1 mph NNE5.0 kmh NNE 8.3 mph13.4 kmh 30.26 in1024.7 mb 0.00 in0.0 mm 0.00 in0.0 mm 0.00 in0.0 mm
10:30 AM 72.9°F22.7°C 58.7°F14.8°C 61% 5.4 mph NNE8.7 kmh NNE 8.3 mph13.4 kmh 30.25 in1024.4 mb 0.00 in0.0 mm 0.00 in0.0 mm 0.00 in0.0 mm
10:35 AM 73.8°F23.2°C 58.6°F14.8°C 59% 3.8 mph NNE6.1 kmh NNE 7.6 mph12.2 kmh 30.25 in1024.4 mb 0.00 in0.0 mm 0.00 in0.0 mm 0.00 in0.0 mm
10:40 AM 75.2°F24.0°C 59.0°F15.0°C 57% 5.4 mph NNE8.7 kmh NNE 7.6 mph12.2 kmh 30.25 in1024.4 mb 0.00 in0.0 mm 0.00 in0.0 mm 0.00 in0.0 mm
10:45 AM 76.5°F24.7°C 59.6°F15.3°C 56% 3.8 mph N6.1 kmh N 6.9 mph11.1 kmh 30.25 in1024.4 mb 0.00 in0.0 mm 0.00 in0.0 mm 0.00 in0.0 mm
10:50 AM 76.5°F24.7°C 59.1°F15.1°C 55% 3.8 mph N6.1 kmh N 6.9 mph11.1 kmh 30.24 in1024.0 mb 0.00 in0.0 mm 0.00 in0.0 mm 0.00 in0.0 mm
10:55 AM 76.3°F24.6°C 58.5°F14.7°C 54% 3.1 mph NNE5.0 kmh NNE 6.9 mph11.1 kmh 30.24 in1024.0 mb 0.00 in0.0 mm 0.00 in0.0 mm 0.00 in0.0 mm
11:00 AM 75.9°F24.4°C 58.1°F14.5°C 54% 3.8 mph NE6.1 kmh NE 9.2 mph14.8 kmh 30.24 in1024.0 mb 0.00 in0.0 mm 0.00 in0.0 mm 0.00 in0.0 mm
11:05 AM 75.9°F24.4°C 58.1°F14.5°C 54% 3.8 mph NNE6.1 kmh NNE 9.2 mph14.8 kmh 30.23 in1023.7 mb 0.00 in0.0 mm 0.00 in0.0 mm 0.00 in0.0 mm
11:10 AM 76.8°F24.9°C 59.0°F15.0°C 54% 1.6 mph NNW2.6 kmh NNW 4.5 mph7.2 kmh 30.23 in1023.7 mb 0.00 in0.0 mm 0.00 in0.0 mm 0.00 in0.0 mm
11:15 AM 77.2°F25.1°C 58.8°F14.9°C 53% 3.8 mph NW6.1 kmh NW 6.0 mph9.7 kmh 30.23 in1023.7 mb 0.00 in0.0 mm 0.00 in0.0 mm 0.00 in0.0 mm
11:20 AM 78.1°F25.6°C 59.6°F15.3°C 53% 3.1 mph N5.0 kmh N 6.0 mph9.7 kmh 30.23 in1023.7 mb 0.00 in0.0 mm 0.00 in0.0 mm 0.00 in0.0 mm
11:25 AM 78.8°F26.0°C 58.6°F14.8°C 50% 6.9 mph E11.1 kmh E 9.2 mph14.8 kmh 30.23 in1023.7 mb 0.00 in0.0 mm 0.00 in0.0 mm 0.00 in0.0 mm
11:30 AM 78.6°F25.9°C 57.9°F14.4°C 49% 4.5 mph ESE7.2 kmh ESE 9.8 mph15.8 kmh 30.22 in1023.4 mb 0.00 in0.0 mm 0.00 in0.0 mm 0.00 in0.0 mm
11:35 AM 78.3°F25.7°C 57.6°F14.2°C 49% 6.9 mph E11.1 kmh E 13.0 mph20.9 kmh 30.22 in1023.4 mb 0.00 in0.0 mm 0.00 in0.0 mm 0.00 in0.0 mm
11:40 AM 78.3°F25.7°C 57.6°F14.2°C 49% 9.8 mph ENE15.8 kmh ENE 13.0 mph20.9 kmh 30.22 in1023.4 mb 0.00 in0.0 mm 0.00 in0.0 mm 0.00 in0.0 mm
11:45 AM 78.3°F25.7°C 56.4°F13.6°C 47% 4.5 mph ENE7.2 kmh ENE 13.0 mph20.9 kmh 30.22 in1023.4 mb 0.00 in0.0 mm 0.00 in0.0 mm 0.00 in0.0 mm
11:50 AM 78.8°F26.0°C 56.3°F13.5°C 46% 7.6 mph E12.2 kmh E 13.0 mph20.9 kmh 30.21 in1023.0 mb 0.00 in0.0 mm 0.00 in0.0 mm 0.00 in0.0 mm
11:55 AM 78.8°F26.0°C 55.7°F13.2°C 45% 6.9 mph NE11.1 kmh NE 12.1 mph19.5 kmh 30.21 in1023.0 mb 0.00 in0.0 mm 0.00 in0.0 mm 0.00 in0.0 mm
12:00 PM 78.4°F25.8°C 56.0°F13.3°C 46% 8.3 mph NE13.4 kmh NE 14.5 mph23.3 kmh 30.21 in1023.0 mb 0.00 in0.0 mm 0.00 in0.0 mm 0.00 in0.0 mm
12:05 PM 78.4°F25.8°C 56.6°F13.7°C 47% 6.9 mph E11.1 kmh E 15.2 mph24.5 kmh 30.21 in1023.0 mb 0.00 in0.0 mm 0.00 in0.0 mm 0.00 in0.0 mm
12:10 PM 78.3°F25.7°C 56.4°F13.6°C 47% 6.0 mph E9.7 kmh E 15.2 mph24.5 kmh 30.21 in1023.0 mb 0.00 in0.0 mm 0.00 in0.0 mm 0.00 in0.0 mm
12:15 PM 78.8°F26.0°C 57.5°F14.2°C 48% 9.8 mph ESE15.8 kmh ESE 13.6 mph21.9 kmh 30.21 in1023.0 mb 0.00 in0.0 mm 0.00 in0.0 mm 0.00 in0.0 mm
12:20 PM 80.4°F26.9°C 57.8°F14.3°C 46% 6.0 mph E9.7 kmh E 14.5 mph23.3 kmh 30.20 in1022.7 mb 0.00 in0.0 mm 0.00 in0.0 mm 0.00 in0.0 mm
12:25 PM 81.3°F27.4°C 57.4°F14.1°C 44% 7.6 mph ESE12.2 kmh ESE 14.5 mph23.3 kmh 30.20 in1022.7 mb 0.00 in0.0 mm 0.00 in0.0 mm 0.00 in0.0 mm
12:30 PM 81.5°F27.5°C 56.9°F13.8°C 43% 8.3 mph SE13.4 kmh SE 13.0 mph20.9 kmh 30.20 in1022.7 mb 0.00 in0.0 mm 0.00 in0.0 mm 0.00 in0.0 mm
12:35 PM 82.2°F27.9°C 57.5°F14.2°C 43% 9.8 mph SE15.8 kmh SE 16.8 mph27.0 kmh 30.20 in1022.7 mb 0.00 in0.0 mm 0.00 in0.0 mm 0.00 in0.0 mm
12:40 PM 83.1°F28.4°C 59.0°F15.0°C 44% 9.2 mph ESE14.8 kmh ESE 16.8 mph27.0 kmh 30.20 in1022.7 mb 0.00 in0.0 mm 0.00 in0.0 mm 0.00 in0.0 mm
12:45 PM 83.1°F28.4°C 58.4°F14.7°C 43% 6.0 mph SE9.7 kmh SE 13.6 mph21.9 kmh 30.20 in1022.7 mb 0.00 in0.0 mm 0.00 in0.0 mm 0.00 in0.0 mm
12:50 PM 83.1°F28.4°C 58.4°F14.7°C 43% 9.2 mph ESE14.8 kmh ESE 15.9 mph25.6 kmh 30.19 in1022.4 mb 0.00 in0.0 mm 0.00 in0.0 mm 0.00 in0.0 mm
12:55 PM 83.5°F28.6°C 58.0°F14.4°C 42% 3.8 mph SE6.1 kmh SE 15.9 mph25.6 kmh 30.20 in1022.7 mb 0.00 in0.0 mm 0.00 in0.0 mm 0.00 in0.0 mm
01:00 PM 83.8°F28.8°C 59.0°F15.0°C 43% 9.8 mph SE15.8 kmh SE 14.5 mph23.3 kmh 30.20 in1022.7 mb 0.00 in0.0 mm 0.00 in0.0 mm 0.00 in0.0 mm
01:05 PM 83.8°F28.8°C 59.0°F15.0°C 43% 9.8 mph ESE15.8 kmh ESE 14.5 mph23.3 kmh 30.20 in1022.7 mb 0.00 in0.0 mm 0.00 in0.0 mm 0.00 in0.0 mm
01:10 PM 84.0°F28.9°C 57.1°F13.9°C 40% 10.7 mph E17.2 kmh E 14.5 mph23.3 kmh 30.19 in1022.4 mb 0.00 in0.0 mm 0.00 in0.0 mm 0.00 in0.0 mm
01:15 PM 84.2°F29.0°C 55.9°F13.3°C 38% 7.6 mph ESE12.2 kmh ESE 14.5 mph23.3 kmh 30.19 in1022.4 mb 0.00 in0.0 mm 0.00 in0.0 mm 0.00 in0.0 mm
01:20 PM 84.2°F29.0°C 55.9°F13.3°C 38% 10.7 mph SE17.2 kmh SE 13.6 mph21.9 kmh 30.18 in1022.0 mb 0.00 in0.0 mm 0.00 in0.0 mm 0.00 in0.0 mm
01:25 PM 84.4°F29.1°C 56.8°F13.8°C 39% 6.0 mph ESE9.7 kmh ESE 12.1 mph19.5 kmh 30.18 in1022.0 mb 0.00 in0.0 mm 0.00 in0.0 mm 0.00 in0.0 mm
01:30 PM 84.9°F29.4°C 56.5°F13.6°C 38% 5.4 mph SE8.7 kmh SE 12.1 mph19.5 kmh 30.18 in1022.0 mb 0.00 in0.0 mm 0.00 in0.0 mm 0.00 in0.0 mm
01:35 PM 85.3°F29.6°C 56.1°F13.4°C 37% 9.8 mph SE15.8 kmh SE 13.6 mph21.9 kmh 30.17 in1021.7 mb 0.00 in0.0 mm 0.00 in0.0 mm 0.00 in0.0 mm
01:40 PM 85.6°F29.8°C 57.2°F14.0°C 38% 7.6 mph E12.2 kmh E 13.6 mph21.9 kmh 30.17 in1021.7 mb 0.00 in0.0 mm 0.00 in0.0 mm 0.00 in0.0 mm
01:45 PM 85.3°F29.6°C 56.8°F13.8°C 38% 8.3 mph NNE13.4 kmh NNE 10.7 mph17.2 kmh 30.17 in1021.7 mb 0.00 in0.0 mm 0.00 in0.0 mm 0.00 in0.0 mm
01:50 PM 85.1°F29.5°C 55.2°F12.9°C 36% 3.1 mph NE5.0 kmh NE 10.7 mph17.2 kmh 30.17 in1021.7 mb 0.00 in0.0 mm 0.00 in0.0 mm 0.00 in0.0 mm
01:55 PM 84.6°F29.2°C 56.2°F13.4°C 38% 3.8 mph NE6.1 kmh NE 10.7 mph17.2 kmh 30.17 in1021.7 mb 0.00 in0.0 mm 0.00 in0.0 mm 0.00 in0.0 mm
02:00 PM 84.7°F29.3°C 56.4°F13.6°C 38% 0.7 mph NE1.1 kmh NE 7.6 mph12.2 kmh 30.16 in1021.3 mb 0.00 in0.0 mm 0.00 in0.0 mm 0.00 in0.0 mm
02:05 PM 84.7°F29.3°C 54.9°F12.7°C 36% 11.4 mph E18.3 kmh E 13.6 mph21.9 kmh 30.16 in1021.3 mb 0.00 in0.0 mm 0.00 in0.0 mm 0.00 in0.0 mm
02:10 PM 84.9°F29.4°C 54.3°F12.4°C 35% 4.5 mph E7.2 kmh E 13.6 mph21.9 kmh 30.16 in1021.3 mb 0.00 in0.0 mm 0.00 in0.0 mm 0.00 in0.0 mm
02:15 PM 85.6°F29.8°C 55.7°F13.2°C 36% 4.5 mph ENE7.2 kmh ENE 14.5 mph23.3 kmh 30.16 in1021.3 mb 0.00 in0.0 mm 0.00 in0.0 mm 0.00 in0.0 mm
02:20 PM 85.8°F29.9°C 55.1°F12.8°C 35% 4.5 mph NE7.2 kmh NE 14.5 mph23.3 kmh 30.15 in1021.0 mb 0.00 in0.0 mm 0.00 in0.0 mm 0.00 in0.0 mm
02:25 PM 86.2°F30.1°C 55.4°F13.0°C 35% 3.1 mph NE5.0 kmh NE 11.4 mph18.3 kmh 30.15 in1021.0 mb 0.00 in0.0 mm 0.00 in0.0 mm 0.00 in0.0 mm
02:30 PM 86.4°F30.2°C 55.5°F13.1°C 35% 3.8 mph NE6.1 kmh NE 11.4 mph18.3 kmh 30.15 in1021.0 mb 0.00 in0.0 mm 0.00 in0.0 mm 0.00 in0.0 mm
02:35 PM 85.8°F29.9°C 55.1°F12.8°C 35% 4.5 mph ENE7.2 kmh ENE 7.6 mph12.2 kmh 30.15 in1021.0 mb 0.00 in0.0 mm 0.00 in0.0 mm 0.00 in0.0 mm
02:40 PM 84.9°F29.4°C 54.3°F12.4°C 35% 3.1 mph ENE5.0 kmh ENE 9.8 mph15.8 kmh 30.14 in1020.7 mb 0.00 in0.0 mm 0.00 in0.0 mm 0.00 in0.0 mm
02:45 PM 84.6°F29.2°C 54.7°F12.6°C 36% 3.1 mph ENE5.0 kmh ENE 9.8 mph15.8 kmh 30.14 in1020.7 mb 0.00 in0.0 mm 0.00 in0.0 mm 0.00 in0.0 mm
02:50 PM 85.6°F29.8°C 55.7°F13.2°C 36% 5.4 mph ENE8.7 kmh ENE 7.6 mph12.2 kmh 30.14 in1020.7 mb 0.00 in0.0 mm 0.00 in0.0 mm 0.00 in0.0 mm
02:55 PM 86.5°F30.3°C 55.7°F13.2°C 35% 2.2 mph ENE3.5 kmh ENE 9.2 mph14.8 kmh 30.14 in1020.7 mb 0.00 in0.0 mm 0.00 in0.0 mm 0.00 in0.0 mm
03:00 PM 86.5°F30.3°C 54.1°F12.3°C 33% 6.0 mph E9.7 kmh E 9.2 mph14.8 kmh 30.14 in1020.7 mb 0.00 in0.0 mm 0.00 in0.0 mm 0.00 in0.0 mm
03:05 PM 86.0°F30.0°C 53.6°F12.0°C 33% 7.6 mph E12.2 kmh E 10.7 mph17.2 kmh 30.14 in1020.7 mb 0.00 in0.0 mm 0.00 in0.0 mm 0.00 in0.0 mm
03:10 PM 86.2°F30.1°C 53.8°F12.1°C 33% 5.4 mph ESE8.7 kmh ESE 10.7 mph17.2 kmh 30.13 in1020.3 mb 0.00 in0.0 mm 0.00 in0.0 mm 0.00 in0.0 mm
03:15 PM 86.5°F30.3°C 54.1°F12.3°C 33% 9.2 mph SE14.8 kmh SE 13.0 mph20.9 kmh 30.13 in1020.3 mb 0.00 in0.0 mm 0.00 in0.0 mm 0.00 in0.0 mm
03:20 PM 86.9°F30.5°C 53.5°F11.9°C 32% 9.2 mph SE14.8 kmh SE 14.5 mph23.3 kmh 30.13 in1020.3 mb 0.00 in0.0 mm 0.00 in0.0 mm 0.00 in0.0 mm
03:25 PM 87.6°F30.9°C 53.3°F11.8°C 31% 4.5 mph SE7.2 kmh SE 14.5 mph23.3 kmh 30.12 in1020.0 mb 0.00 in0.0 mm 0.00 in0.0 mm 0.00 in0.0 mm
03:30 PM 88.0°F31.1°C 51.8°F11.0°C 29% 6.0 mph SE9.7 kmh SE 15.2 mph24.5 kmh 30.12 in1020.0 mb 0.00 in0.0 mm 0.00 in0.0 mm 0.00 in0.0 mm
03:35 PM 88.0°F31.1°C 51.8°F11.0°C 29% 3.8 mph ESE6.1 kmh ESE 15.2 mph24.5 kmh 30.12 in1020.0 mb 0.00 in0.0 mm 0.00 in0.0 mm 0.00 in0.0 mm
03:40 PM 88.2°F31.2°C 52.9°F11.6°C 30% 11.4 mph ESE18.3 kmh ESE 16.8 mph27.0 kmh 30.11 in1019.6 mb 0.00 in0.0 mm 0.00 in0.0 mm 0.00 in0.0 mm
03:45 PM 88.3°F31.3°C 53.9°F12.2°C 31% 5.4 mph ESE8.7 kmh ESE 16.8 mph27.0 kmh 30.11 in1019.6 mb 0.00 in0.0 mm 0.00 in0.0 mm 0.00 in0.0 mm
03:50 PM 88.5°F31.4°C 52.3°F11.3°C 29% 9.2 mph SE14.8 kmh SE 16.8 mph27.0 kmh 30.11 in1019.6 mb 0.00 in0.0 mm 0.00 in0.0 mm 0.00 in0.0 mm
03:55 PM 88.5°F31.4°C 51.3°F10.7°C 28% 6.9 mph ESE11.1 kmh ESE 11.4 mph18.3 kmh 30.11 in1019.6 mb 0.00 in0.0 mm 0.00 in0.0 mm 0.00 in0.0 mm
04:00 PM 88.5°F31.4°C 52.3°F11.3°C 29% 4.5 mph E7.2 kmh E 11.4 mph18.3 kmh 30.11 in1019.6 mb 0.00 in0.0 mm 0.00 in0.0 mm 0.00 in0.0 mm
04:05 PM 88.5°F31.4°C 51.3°F10.7°C 28% 10.7 mph E17.2 kmh E 13.6 mph21.9 kmh 30.11 in1019.6 mb 0.00 in0.0 mm 0.00 in0.0 mm 0.00 in0.0 mm
04:10 PM 88.2°F31.2°C 51.0°F10.6°C 28% 6.0 mph ESE9.7 kmh ESE 13.6 mph21.9 kmh 30.11 in1019.6 mb 0.00 in0.0 mm 0.00 in0.0 mm 0.00 in0.0 mm
04:15 PM 88.2°F31.2°C 51.0°F10.6°C 28% 4.5 mph SE7.2 kmh SE 13.6 mph21.9 kmh 30.10 in1019.3 mb 0.00 in0.0 mm 0.00 in0.0 mm 0.00 in0.0 mm
04:25 PM 88.3°F31.3°C 51.2°F10.7°C 28% 9.2 mph SE14.8 kmh SE 14.5 mph23.3 kmh 30.10 in1019.3 mb 0.00 in0.0 mm 0.00 in0.0 mm 0.00 in0.0 mm
04:30 PM 88.3°F31.3°C 50.2°F10.1°C 27% 5.4 mph SE8.7 kmh SE 14.5 mph23.3 kmh 30.09 in1019.0 mb 0.00 in0.0 mm 0.00 in0.0 mm 0.00 in0.0 mm
04:35 PM 88.5°F31.4°C 51.3°F10.7°C 28% 10.7 mph SE17.2 kmh SE 15.2 mph24.5 kmh 30.10 in1019.3 mb 0.00 in0.0 mm 0.00 in0.0 mm 0.00 in0.0 mm
04:40 PM 88.3°F31.3°C 51.2°F10.7°C 28% 11.4 mph SE18.3 kmh SE 17.4 mph28.0 kmh 30.09 in1019.0 mb 0.00 in0.0 mm 0.00 in0.0 mm 0.00 in0.0 mm
04:45 PM 88.2°F31.2°C 50.0°F10.0°C 27% 7.6 mph E12.2 kmh E 17.4 mph28.0 kmh 30.09 in1019.0 mb 0.00 in0.0 mm 0.00 in0.0 mm 0.00 in0.0 mm
04:50 PM 88.2°F31.2°C 51.0°F10.6°C 28% 6.9 mph E11.1 kmh E 14.5 mph23.3 kmh 30.10 in1019.3 mb 0.00 in0.0 mm 0.00 in0.0 mm 0.00 in0.0 mm
04:55 PM 88.2°F31.2°C 49.0°F9.4°C 26% 13.0 mph SE20.9 kmh SE 18.3 mph29.5 kmh 30.09 in1019.0 mb 0.00 in0.0 mm 0.00 in0.0 mm 0.00 in0.0 mm
05:00 PM 88.0°F31.1°C 48.9°F9.4°C 26% 5.4 mph SE8.7 kmh SE 18.3 mph29.5 kmh 30.09 in1019.0 mb 0.00 in0.0 mm 0.00 in0.0 mm 0.00 in0.0 mm
05:05 PM 88.0°F31.1°C 48.9°F9.4°C 26% 5.4 mph SE8.7 kmh SE 14.5 mph23.3 kmh 30.09 in1019.0 mb 0.00 in0.0 mm 0.00 in0.0 mm 0.00 in0.0 mm
05:10 PM 88.2°F31.2°C 50.0°F10.0°C 27% 4.5 mph SE7.2 kmh SE 11.4 mph18.3 kmh 30.09 in1019.0 mb 0.00 in0.0 mm 0.00 in0.0 mm 0.00 in0.0 mm
05:15 PM 88.0°F31.1°C 48.9°F9.4°C 26% 6.9 mph SE11.1 kmh SE 13.0 mph20.9 kmh 30.09 in1019.0 mb 0.00 in0.0 mm 0.00 in0.0 mm 0.00 in0.0 mm
05:20 PM 87.3°F30.7°C 49.3°F9.6°C 27% 8.3 mph ESE13.4 kmh ESE 17.4 mph28.0 kmh 30.09 in1019.0 mb 0.00 in0.0 mm 0.00 in0.0 mm 0.00 in0.0 mm
05:25 PM 87.1°F30.6°C 50.1°F10.1°C 28% 10.7 mph SE17.2 kmh SE 17.4 mph28.0 kmh 30.09 in1019.0 mb 0.00 in0.0 mm 0.00 in0.0 mm 0.00 in0.0 mm
05:30 PM 86.7°F30.4°C 48.8°F9.3°C 27% 7.6 mph SE12.2 kmh SE 13.6 mph21.9 kmh 30.09 in1019.0 mb 0.00 in0.0 mm 0.00 in0.0 mm 0.00 in0.0 mm
05:35 PM 86.4°F30.2°C 48.5°F9.2°C 27% 6.9 mph ESE11.1 kmh ESE 13.6 mph21.9 kmh 30.10 in1019.3 mb 0.00 in0.0 mm 0.00 in0.0 mm 0.00 in0.0 mm
05:40 PM 85.6°F29.8°C 49.8°F9.9°C 29% 9.2 mph ESE14.8 kmh ESE 14.5 mph23.3 kmh 30.09 in1019.0 mb 0.00 in0.0 mm 0.00 in0.0 mm 0.00 in0.0 mm
05:45 PM 85.3°F29.6°C 49.5°F9.7°C 29% 8.3 mph ESE13.4 kmh ESE 14.5 mph23.3 kmh 30.09 in1019.0 mb 0.00 in0.0 mm 0.00 in0.0 mm 0.00 in0.0 mm
05:50 PM 84.9°F29.4°C 50.1°F10.1°C 30% 6.9 mph ESE11.1 kmh ESE 13.0 mph20.9 kmh 30.09 in1019.0 mb 0.00 in0.0 mm 0.00 in0.0 mm 0.00 in0.0 mm
05:55 PM 84.7°F29.3°C 49.9°F9.9°C 30% 7.6 mph ESE12.2 kmh ESE 14.5 mph23.3 kmh 30.10 in1019.3 mb 0.00 in0.0 mm 0.00 in0.0 mm 0.00 in0.0 mm
06:00 PM 84.4°F29.1°C 50.5°F10.3°C 31% 10.7 mph E17.2 kmh E 14.5 mph23.3 kmh 30.10 in1019.3 mb 0.00 in0.0 mm 0.00 in0.0 mm 0.00 in0.0 mm
06:05 PM 84.0°F28.9°C 51.0°F10.6°C 32% 13.6 mph ESE21.9 kmh ESE 16.8 mph27.0 kmh 30.10 in1019.3 mb 0.00 in0.0 mm 0.00 in0.0 mm 0.00 in0.0 mm
06:10 PM 83.7°F28.7°C 51.6°F10.9°C 33% 9.2 mph E14.8 kmh E 16.8 mph27.0 kmh 30.10 in1019.3 mb 0.00 in0.0 mm 0.00 in0.0 mm 0.00 in0.0 mm
06:15 PM 83.5°F28.6°C 51.4°F10.8°C 33% 6.9 mph E11.1 kmh E 16.8 mph27.0 kmh 30.10 in1019.3 mb 0.00 in0.0 mm 0.00 in0.0 mm 0.00 in0.0 mm
06:20 PM 83.5°F28.6°C 51.4°F10.8°C 33% 6.0 mph ESE9.7 kmh ESE 16.8 mph27.0 kmh 30.10 in1019.3 mb 0.00 in0.0 mm 0.00 in0.0 mm 0.00 in0.0 mm
06:25 PM 83.5°F28.6°C 52.2°F11.2°C 34% 5.4 mph ESE8.7 kmh ESE 13.6 mph21.9 kmh 30.10 in1019.3 mb 0.00 in0.0 mm 0.00 in0.0 mm 0.00 in0.0 mm
06:30 PM 83.3°F28.5°C 52.8°F11.6°C 35% 5.4 mph ESE8.7 kmh ESE 13.6 mph21.9 kmh 30.10 in1019.3 mb 0.00 in0.0 mm 0.00 in0.0 mm 0.00 in0.0 mm
06:35 PM 83.1°F28.4°C 52.7°F11.5°C 35% 6.0 mph ESE9.7 kmh ESE 8.3 mph13.4 kmh 30.10 in1019.3 mb 0.00 in0.0 mm 0.00 in0.0 mm 0.00 in0.0 mm
06:40 PM 82.9°F28.3°C 50.9°F10.5°C 33% 9.2 mph ESE14.8 kmh ESE 13.6 mph21.9 kmh 30.10 in1019.3 mb 0.00 in0.0 mm 0.00 in0.0 mm 0.00 in0.0 mm
06:45 PM 82.6°F28.1°C 49.8°F9.9°C 32% 9.2 mph SE14.8 kmh SE 13.6 mph21.9 kmh 30.10 in1019.3 mb 0.00 in0.0 mm 0.00 in0.0 mm 0.00 in0.0 mm
06:50 PM 82.2°F27.9°C 48.6°F9.2°C 31% 5.4 mph ESE8.7 kmh ESE 15.2 mph24.5 kmh 30.10 in1019.3 mb 0.00 in0.0 mm 0.00 in0.0 mm 0.00 in0.0 mm
06:55 PM 82.0°F27.8°C 48.5°F9.2°C 31% 6.0 mph ESE9.7 kmh ESE 15.2 mph24.5 kmh 30.10 in1019.3 mb 0.00 in0.0 mm 0.00 in0.0 mm 0.00 in0.0 mm
07:00 PM 82.0°F27.8°C 48.5°F9.2°C 31% 3.8 mph ESE6.1 kmh ESE 12.1 mph19.5 kmh 30.10 in1019.3 mb 0.00 in0.0 mm 0.00 in0.0 mm 0.00 in0.0 mm
07:05 PM 82.0°F27.8°C 48.5°F9.2°C 31% 3.8 mph E6.1 kmh E 11.4 mph18.3 kmh 30.11 in1019.6 mb 0.00 in0.0 mm 0.00 in0.0 mm 0.00 in0.0 mm
07:10 PM 81.5°F27.5°C 48.0°F8.9°C 31% 5.4 mph E8.7 kmh E 13.6 mph21.9 kmh 30.11 in1019.6 mb 0.00 in0.0 mm 0.00 in0.0 mm 0.00 in0.0 mm
07:15 PM 81.5°F27.5°C 48.0°F8.9°C 31% 7.6 mph ESE12.2 kmh ESE 15.2 mph24.5 kmh 30.11 in1019.6 mb 0.00 in0.0 mm 0.00 in0.0 mm 0.00 in0.0 mm
07:20 PM 81.3°F27.4°C 47.8°F8.8°C 31% 3.8 mph ESE6.1 kmh ESE 15.2 mph24.5 kmh 30.11 in1019.6 mb 0.00 in0.0 mm 0.00 in0.0 mm 0.00 in0.0 mm
07:25 PM 81.0°F27.2°C 48.4°F9.1°C 32% 9.8 mph E15.8 kmh E 14.5 mph23.3 kmh 30.11 in1019.6 mb 0.00 in0.0 mm 0.00 in0.0 mm 0.00 in0.0 mm
07:30 PM 81.0°F27.2°C 48.4°F9.1°C 32% 3.1 mph E5.0 kmh E 14.5 mph23.3 kmh 30.12 in1020.0 mb 0.00 in0.0 mm 0.00 in0.0 mm 0.00 in0.0 mm
07:35 PM 80.8°F27.1°C 48.2°F9.0°C 32% 5.4 mph E8.7 kmh E 14.5 mph23.3 kmh 30.12 in1020.0 mb 0.00 in0.0 mm 0.00 in0.0 mm 0.00 in0.0 mm
07:40 PM 80.4°F26.9°C 48.7°F9.3°C 33% 3.8 mph E6.1 kmh E 7.6 mph12.2 kmh 30.12 in1020.0 mb 0.00 in0.0 mm 0.00 in0.0 mm 0.00 in0.0 mm
07:45 PM 80.1°F26.7°C 49.2°F9.6°C 34% 3.1 mph E5.0 kmh E 6.9 mph11.1 kmh 30.12 in1020.0 mb 0.00 in0.0 mm 0.00 in0.0 mm 0.00 in0.0 mm
07:50 PM 79.7°F26.5°C 48.9°F9.4°C 34% 2.2 mph E3.5 kmh E 6.9 mph11.1 kmh 30.12 in1020.0 mb 0.00 in0.0 mm 0.00 in0.0 mm 0.00 in0.0 mm
07:55 PM 79.3°F26.3°C 49.3°F9.6°C 35% 2.2 mph ENE3.5 kmh ENE 4.5 mph7.2 kmh 30.12 in1020.0 mb 0.00 in0.0 mm 0.00 in0.0 mm 0.00 in0.0 mm
08:00 PM 79.2°F26.2°C 49.2°F9.6°C 35% 1.6 mph ENE2.6 kmh ENE 9.2 mph14.8 kmh 30.13 in1020.3 mb 0.00 in0.0 mm 0.00 in0.0 mm 0.00 in0.0 mm
08:05 PM 79.0°F26.1°C 49.0°F9.4°C 35% 2.2 mph E3.5 kmh E 9.2 mph14.8 kmh 30.12 in1020.0 mb 0.00 in0.0 mm 0.00 in0.0 mm 0.00 in0.0 mm
08:10 PM 78.6°F25.9°C 50.2°F10.1°C 37% 1.6 mph E2.6 kmh E 6.0 mph9.7 kmh 30.13 in1020.3 mb 0.00 in0.0 mm 0.00 in0.0 mm 0.00 in0.0 mm
08:15 PM 78.4°F25.8°C 50.8°F10.4°C 38% 3.1 mph ENE5.0 kmh ENE 8.3 mph13.4 kmh 30.13 in1020.3 mb 0.00 in0.0 mm 0.00 in0.0 mm 0.00 in0.0 mm
08:20 PM 78.3°F25.7°C 50.6°F10.3°C 38% 1.6 mph NE2.6 kmh NE 8.3 mph13.4 kmh 30.13 in1020.3 mb 0.00 in0.0 mm 0.00 in0.0 mm 0.00 in0.0 mm
08:25 PM 78.1°F25.6°C 50.4°F10.2°C 38% 1.6 mph ENE2.6 kmh ENE 4.5 mph7.2 kmh 30.13 in1020.3 mb 0.00 in0.0 mm 0.00 in0.0 mm 0.00 in0.0 mm
08:30 PM 78.1°F25.6°C 51.1°F10.6°C 39% 1.6 mph NE2.6 kmh NE 4.5 mph7.2 kmh 30.13 in1020.3 mb 0.00 in0.0 mm 0.00 in0.0 mm 0.00 in0.0 mm
08:35 PM 77.7°F25.4°C 52.2°F11.2°C 41% 2.2 mph NE3.5 kmh NE 3.8 mph6.1 kmh 30.13 in1020.3 mb 0.00 in0.0 mm 0.00 in0.0 mm 0.00 in0.0 mm
08:40 PM 77.0°F25.0°C 52.8°F11.6°C 43% 3.1 mph NNE5.0 kmh NNE 4.5 mph7.2 kmh 30.13 in1020.3 mb 0.00 in0.0 mm 0.00 in0.0 mm 0.00 in0.0 mm
08:45 PM 76.5°F24.7°C 53.0°F11.7°C 44% 1.6 mph NNE2.6 kmh NNE 4.5 mph7.2 kmh 30.14 in1020.7 mb 0.00 in0.0 mm 0.00 in0.0 mm 0.00 in0.0 mm
08:50 PM 76.1°F24.5°C 52.6°F11.4°C 44% 1.6 mph NE2.6 kmh NE 6.0 mph9.7 kmh 30.14 in1020.7 mb 0.00 in0.0 mm 0.00 in0.0 mm 0.00 in0.0 mm
08:55 PM 75.9°F24.4°C 52.5°F11.4°C 44% 1.6 mph ENE2.6 kmh ENE 6.0 mph9.7 kmh 30.14 in1020.7 mb 0.00 in0.0 mm 0.00 in0.0 mm 0.00 in0.0 mm
09:00 PM 75.6°F24.2°C 52.1°F11.2°C 44% 1.6 mph NE2.6 kmh NE 4.5 mph7.2 kmh 30.14 in1020.7 mb 0.00 in0.0 mm 0.00 in0.0 mm 0.00 in0.0 mm
09:05 PM 75.6°F24.2°C 52.1°F11.2°C 44% 1.6 mph ENE2.6 kmh ENE 4.5 mph7.2 kmh 30.15 in1021.0 mb 0.00 in0.0 mm 0.00 in0.0 mm 0.00 in0.0 mm
09:10 PM 75.0°F23.9°C 52.3°F11.3°C 45% 4.5 mph E7.2 kmh E 7.6 mph12.2 kmh 30.15 in1021.0 mb 0.00 in0.0 mm 0.00 in0.0 mm 0.00 in0.0 mm
09:15 PM 75.2°F24.0°C 51.8°F11.0°C 44% 6.0 mph ESE9.7 kmh ESE 9.8 mph15.8 kmh 30.15 in1021.0 mb 0.00 in0.0 mm 0.00 in0.0 mm 0.00 in0.0 mm
09:20 PM 75.7°F24.3°C 52.3°F11.3°C 44% 6.9 mph ESE11.1 kmh ESE 10.7 mph17.2 kmh 30.16 in1021.3 mb 0.00 in0.0 mm 0.00 in0.0 mm 0.00 in0.0 mm
09:25 PM 76.1°F24.5°C 52.6°F11.4°C 44% 4.5 mph ESE7.2 kmh ESE 10.7 mph17.2 kmh 30.16 in1021.3 mb 0.00 in0.0 mm 0.00 in0.0 mm 0.00 in0.0 mm
09:30 PM 76.3°F24.6°C 52.8°F11.6°C 44% 3.8 mph E6.1 kmh E 9.8 mph15.8 kmh 30.16 in1021.3 mb 0.00 in0.0 mm 0.00 in0.0 mm 0.00 in0.0 mm
09:35 PM 76.3°F24.6°C 52.8°F11.6°C 44% 5.4 mph E8.7 kmh E 9.8 mph15.8 kmh 30.16 in1021.3 mb 0.00 in0.0 mm 0.00 in0.0 mm 0.00 in0.0 mm
09:40 PM 76.3°F24.6°C 52.8°F11.6°C 44% 5.4 mph ESE8.7 kmh ESE 10.7 mph17.2 kmh 30.17 in1021.7 mb 0.00 in0.0 mm 0.00 in0.0 mm 0.00 in0.0 mm
09:45 PM 76.3°F24.6°C 52.8°F11.6°C 44% 6.0 mph ESE9.7 kmh ESE 10.7 mph17.2 kmh 30.17 in1021.7 mb 0.00 in0.0 mm 0.00 in0.0 mm 0.00 in0.0 mm
09:50 PM 76.3°F24.6°C 53.4°F11.9°C 45% 6.9 mph SE11.1 kmh SE 12.1 mph19.5 kmh 30.18 in1022.0 mb 0.00 in0.0 mm 0.00 in0.0 mm 0.00 in0.0 mm
09:55 PM 76.3°F24.6°C 53.4°F11.9°C 45% 11.4 mph SE18.3 kmh SE 15.2 mph24.5 kmh 30.17 in1021.7 mb 0.00 in0.0 mm 0.00 in0.0 mm 0.00 in0.0 mm
10:00 PM 76.5°F24.7°C 53.6°F12.0°C 45% 7.6 mph SE12.2 kmh SE 15.2 mph24.5 kmh 30.17 in1021.7 mb 0.00 in0.0 mm 0.00 in0.0 mm 0.00 in0.0 mm
10:05 PM 76.5°F24.7°C 53.6°F12.0°C 45% 8.3 mph ESE13.4 kmh ESE 13.6 mph21.9 kmh 30.17 in1021.7 mb 0.00 in0.0 mm 0.00 in0.0 mm 0.00 in0.0 mm
10:10 PM 76.5°F24.7°C 54.2°F12.3°C 46% 6.0 mph E9.7 kmh E 10.7 mph17.2 kmh 30.18 in1022.0 mb 0.00 in0.0 mm 0.00 in0.0 mm 0.00 in0.0 mm
10:15 PM 76.1°F24.5°C 53.9°F12.2°C 46% 4.5 mph E7.2 kmh E 10.7 mph17.2 kmh 30.18 in1022.0 mb 0.00 in0.0 mm 0.00 in0.0 mm 0.00 in0.0 mm
10:20 PM 75.7°F24.3°C 54.1°F12.3°C 47% 3.8 mph ESE6.1 kmh ESE 10.7 mph17.2 kmh 30.18 in1022.0 mb 0.00 in0.0 mm 0.00 in0.0 mm 0.00 in0.0 mm
10:25 PM 75.6°F24.2°C 53.9°F12.2°C 47% 4.5 mph ESE7.2 kmh ESE 10.7 mph17.2 kmh 30.18 in1022.0 mb 0.00 in0.0 mm 0.00 in0.0 mm 0.00 in0.0 mm
10:30 PM 75.2°F24.0°C 53.6°F12.0°C 47% 3.1 mph ESE5.0 kmh ESE 7.6 mph12.2 kmh 30.18 in1022.0 mb 0.00 in0.0 mm 0.00 in0.0 mm 0.00 in0.0 mm
10:35 PM 75.0°F23.9°C 54.0°F12.2°C 48% 4.5 mph E7.2 kmh E 7.6 mph12.2 kmh 30.18 in1022.0 mb 0.00 in0.0 mm 0.00 in0.0 mm 0.00 in0.0 mm
10:40 PM 74.8°F23.8°C 54.4°F12.4°C 49% 3.8 mph E6.1 kmh E 6.0 mph9.7 kmh 30.18 in1022.0 mb 0.00 in0.0 mm 0.00 in0.0 mm 0.00 in0.0 mm
10:45 PM 74.7°F23.7°C 54.3°F12.4°C 49% 1.6 mph E2.6 kmh E 6.0 mph9.7 kmh 30.17 in1021.7 mb 0.00 in0.0 mm 0.00 in0.0 mm 0.00 in0.0 mm
10:50 PM 74.7°F23.7°C 54.3°F12.4°C 49% 2.2 mph E3.5 kmh E 5.4 mph8.7 kmh 30.17 in1021.7 mb 0.00 in0.0 mm 0.00 in0.0 mm 0.00 in0.0 mm
10:55 PM 74.5°F23.6°C 54.7°F12.6°C 50% 2.2 mph ENE3.5 kmh ENE 5.4 mph8.7 kmh 30.18 in1022.0 mb 0.00 in0.0 mm 0.00 in0.0 mm 0.00 in0.0 mm
11:00 PM 74.1°F23.4°C 54.3°F12.4°C 50% 2.2 mph ENE3.5 kmh ENE 5.4 mph8.7 kmh 30.17 in1021.7 mb 0.00 in0.0 mm 0.00 in0.0 mm 0.00 in0.0 mm
11:05 PM 74.1°F23.4°C 54.3°F12.4°C 50% 2.2 mph ENE3.5 kmh ENE 5.4 mph8.7 kmh 30.17 in1021.7 mb 0.00 in0.0 mm 0.00 in0.0 mm 0.00 in0.0 mm
11:10 PM 73.9°F23.3°C 54.7°F12.6°C 51% 3.8 mph NE6.1 kmh NE 6.0 mph9.7 kmh 30.18 in1022.0 mb 0.00 in0.0 mm 0.00 in0.0 mm 0.00 in0.0 mm
11:15 PM 73.9°F23.3°C 54.7°F12.6°C 51% 3.8 mph E6.1 kmh E 8.3 mph13.4 kmh 30.17 in1021.7 mb 0.00 in0.0 mm 0.00 in0.0 mm 0.00 in0.0 mm
11:20 PM 73.9°F23.3°C 54.7°F12.6°C 51% 4.5 mph E7.2 kmh E 8.3 mph13.4 kmh 30.17 in1021.7 mb 0.00 in0.0 mm 0.00 in0.0 mm 0.00 in0.0 mm
11:25 PM 73.8°F23.2°C 54.5°F12.5°C 51% 4.5 mph E7.2 kmh E 10.7 mph17.2 kmh 30.17 in1021.7 mb 0.00 in0.0 mm 0.00 in0.0 mm 0.00 in0.0 mm
11:30 PM 73.8°F23.2°C 54.5°F12.5°C 51% 6.9 mph E11.1 kmh E 10.7 mph17.2 kmh 30.17 in1021.7 mb 0.00 in0.0 mm 0.00 in0.0 mm 0.00 in0.0 mm
11:35 PM 73.6°F23.1°C 54.4°F12.4°C 51% 4.5 mph E7.2 kmh E 10.7 mph17.2 kmh 30.17 in1021.7 mb 0.00 in0.0 mm 0.00 in0.0 mm 0.00 in0.0 mm
11:40 PM 73.6°F23.1°C 54.9°F12.7°C 52% 5.4 mph E8.7 kmh E 9.8 mph15.8 kmh 30.17 in1021.7 mb 0.00 in0.0 mm 0.00 in0.0 mm 0.00 in0.0 mm
11:45 PM 73.4°F23.0°C 54.7°F12.6°C 52% 3.1 mph NE5.0 kmh NE 7.6 mph12.2 kmh 30.18 in1022.0 mb 0.00 in0.0 mm 0.00 in0.0 mm 0.00 in0.0 mm
11:50 PM 73.4°F23.0°C 54.7°F12.6°C 52% 3.8 mph NE6.1 kmh NE 7.6 mph12.2 kmh 30.18 in1022.0 mb 0.00 in0.0 mm 0.00 in0.0 mm 0.00 in0.0 mm
11:55 PM 73.2°F22.9°C 55.1°F12.8°C 53% 3.1 mph E5.0 kmh E 7.6 mph12.2 kmh 30.17 in1021.7 mb 0.00 in0.0 mm 0.00 in0.0 mm 0.00 in0.0 mm